METAR Data
IDs: Format: Raw Decoded Include TAF

Data at: 0242 UTC 25 Jan 2020

METAR for:KDSM (Des Moines Intl, IA, US)
Text:KDSM 250203Z 32013KT 4SM -SN BR SCT010 OVC022 M02/M04 A2998 RMK AO2 P0000 T10171039
Temperature: -1.7°C ( 29°F)
Dewpoint: -3.9°C ( 25°F) [RH = 85%]
Pressure (altimeter):29.98 inches Hg (1015.3 mb)
Winds:from the NW (320 degrees) at 15 MPH (13 knots; 6.7 m/s)
Visibility: 4 sm ( 6 km)
Ceiling:2200 feet AGL
Clouds: scattered clouds at 1000 feet AGL, overcast cloud deck at 2200 feet AGL
Weather:-SN BR (light snow, mist)